sensor_id;sensor_type;location;lat;lon;timestamp;P1;durP1;ratioP1;P2;durP2;ratioP2
20802;SDS011;10562;-33.856;151.182;2023-04-24T00:02:19;5.05;;;0.90;;
20802;SDS011;10562;-33.856;151.182;2023-04-24T00:04:50;7.10;;;1.13;;
20802;SDS011;10562;-33.856;151.182;2023-04-24T00:07:21;7.35;;;1.10;;
20802;SDS011;10562;-33.856;151.182;2023-04-24T00:09:52;5.82;;;0.88;;
20802;SDS011;10562;-33.856;151.182;2023-04-24T00:12:25;4.35;;;1.00;;
20802;SDS011;10562;-33.856;151.182;2023-04-24T00:14:56;7.32;;;1.25;;
20802;SDS011;10562;-33.856;151.182;2023-04-24T00:17:26;7.57;;;1.00;;
20802;SDS011;10562;-33.856;151.182;2023-04-24T00:19:57;4.93;;;0.90;;
20802;SDS011;10562;-33.856;151.182;2023-04-24T00:22:30;8.75;;;0.95;;
20802;SDS011;10562;-33.856;151.182;2023-04-24T00:25:01;6.32;;;1.00;;
20802;SDS011;10562;-33.856;151.182;2023-04-24T00:27:34;7.53;;;0.80;;
20802;SDS011;10562;-33.856;151.182;2023-04-24T00:30:06;8.50;;;1.10;;
20802;SDS011;10562;-33.856;151.182;2023-04-24T00:32:37;6.00;;;1.00;;
20802;SDS011;10562;-33.856;151.182;2023-04-24T00:35:08;5.55;;;1.00;;
20802;SDS011;10562;-33.856;151.182;2023-04-24T00:37:38;5.63;;;1.00;;
20802;SDS011;10562;-33.856;151.182;2023-04-24T00:40:09;3.90;;;0.85;;
20802;SDS011;10562;-33.856;151.182;2023-04-24T00:42:43;5.97;;;0.80;;
20802;SDS011;10562;-33.856;151.182;2023-04-24T00:45:14;7.57;;;1.10;;
20802;SDS011;10562;-33.856;151.182;2023-04-24T00:47:45;11.40;;;1.63;;
20802;SDS011;10562;-33.856;151.182;2023-04-24T00:50:17;8.63;;;1.10;;
20802;SDS011;10562;-33.856;151.182;2023-04-24T00:52:49;5.28;;;1.00;;
20802;SDS011;10562;-33.856;151.182;2023-04-24T00:55:20;3.35;;;0.80;;
20802;SDS011;10562;-33.856;151.182;2023-04-24T00:57:53;6.32;;;1.20;;
20802;SDS011;10562;-33.856;151.182;2023-04-24T01:00:24;7.75;;;1.25;;
20802;SDS011;10562;-33.856;151.182;2023-04-24T01:02:56;5.90;;;1.00;;
20802;SDS011;10562;-33.856;151.182;2023-04-24T01:05:30;5.82;;;1.17;;
20802;SDS011;10562;-33.856;151.182;2023-04-24T01:08:00;9.20;;;1.25;;
20802;SDS011;10562;-33.856;151.182;2023-04-24T01:10:34;6.20;;;0.85;;
20802;SDS011;10562;-33.856;151.182;2023-04-24T01:13:09;5.60;;;0.90;;
20802;SDS011;10562;-33.856;151.182;2023-04-24T01:15:40;3.95;;;0.93;;
20802;SDS011;10562;-33.856;151.182;2023-04-24T01:18:11;9.02;;;0.90;;
20802;SDS011;10562;-33.856;151.182;2023-04-24T01:20:42;4.00;;;1.00;;
20802;SDS011;10562;-33.856;151.182;2023-04-24T01:23:16;5.18;;;0.90;;
20802;SDS011;10562;-33.856;151.182;2023-04-24T01:25:47;5.32;;;1.00;;
20802;SDS011;10562;-33.856;151.182;2023-04-24T01:28:18;5.65;;;1.17;;
20802;SDS011;10562;-33.856;151.182;2023-04-24T01:30:49;11.57;;;1.00;;
20802;SDS011;10562;-33.856;151.182;2023-04-24T01:33:21;8.00;;;1.20;;
20802;SDS011;10562;-33.856;151.182;2023-04-24T01:35:52;6.45;;;1.20;;
20802;SDS011;10562;-33.856;151.182;2023-04-24T01:38:24;4.38;;;1.27;;
20802;SDS011;10562;-33.856;151.182;2023-04-24T01:40:55;5.60;;;1.10;;
20802;SDS011;10562;-33.856;151.182;2023-04-24T01:43:26;4.15;;;0.85;;
20802;SDS011;10562;-33.856;151.182;2023-04-24T01:45:57;5.25;;;1.00;;
20802;SDS011;10562;-33.856;151.182;2023-04-24T01:48:28;9.10;;;1.77;;
20802;SDS011;10562;-33.856;151.182;2023-04-24T01:50:59;7.80;;;1.40;;
20802;SDS011;10562;-33.856;151.182;2023-04-24T01:53:32;6.75;;;1.13;;
20802;SDS011;10562;-33.856;151.182;2023-04-24T01:56:03;4.13;;;0.98;;
20802;SDS011;10562;-33.856;151.182;2023-04-24T01:58:34;4.38;;;0.98;;
20802;SDS011;10562;-33.856;151.182;2023-04-24T02:01:06;4.30;;;1.25;;
20802;SDS011;10562;-33.856;151.182;2023-04-24T02:03:37;11.32;;;1.90;;
20802;SDS011;10562;-33.856;151.182;2023-04-24T02:06:08;14.60;;;2.10;;
20802;SDS011;10562;-33.856;151.182;2023-04-24T02:08:41;10.05;;;2.15;;
20802;SDS011;10562;-33.856;151.182;2023-04-24T02:11:12;15.10;;;2.22;;
20802;SDS011;10562;-33.856;151.182;2023-04-24T02:13:42;15.20;;;2.30;;
20802;SDS011;10562;-33.856;151.182;2023-04-24T02:16:16;15.43;;;2.15;;
20802;SDS011;10562;-33.856;151.182;2023-04-24T02:18:47;13.73;;;2.50;;
20802;SDS011;10562;-33.856;151.182;2023-04-24T02:21:17;12.13;;;2.20;;
20802;SDS011;10562;-33.856;151.182;2023-04-24T02:23:50;13.10;;;1.95;;
20802;SDS011;10562;-33.856;151.182;2023-04-24T02:26:21;13.98;;;2.50;;
20802;SDS011;10562;-33.856;151.182;2023-04-24T02:28:52;12.48;;;2.38;;
20802;SDS011;10562;-33.856;151.182;2023-04-24T02:31:23;15.95;;;2.10;;
20802;SDS011;10562;-33.856;151.182;2023-04-24T02:33:53;10.23;;;2.17;;
20802;SDS011;10562;-33.856;151.182;2023-04-24T02:36:24;13.00;;;2.20;;
20802;SDS011;10562;-33.856;151.182;2023-04-24T02:38:57;9.60;;;2.25;;
20802;SDS011;10562;-33.856;151.182;2023-04-24T02:41:29;13.43;;;2.33;;
20802;SDS011;10562;-33.856;151.182;2023-04-24T02:44:00;10.15;;;2.22;;
20802;SDS011;10562;-33.856;151.182;2023-04-24T02:46:31;17.42;;;2.13;;
20802;SDS011;10562;-33.856;151.182;2023-04-24T02:49:02;11.30;;;2.10;;
20802;SDS011;10562;-33.856;151.182;2023-04-24T02:51:32;8.77;;;1.90;;
20802;SDS011;10562;-33.856;151.182;2023-04-24T02:54:09;6.72;;;1.70;;
20802;SDS011;10562;-33.856;151.182;2023-04-24T02:56:39;9.10;;;1.85;;
20802;SDS011;10562;-33.856;151.182;2023-04-24T02:59:10;10.80;;;2.03;;
20802;SDS011;10562;-33.856;151.182;2023-04-24T03:01:41;9.85;;;2.25;;
20802;SDS011;10562;-33.856;151.182;2023-04-24T03:04:12;8.90;;;1.85;;
20802;SDS011;10562;-33.856;151.182;2023-04-24T03:06:46;9.95;;;1.85;;
20802;SDS011;10562;-33.856;151.182;2023-04-24T03:09:19;17.17;;;2.08;;
20802;SDS011;10562;-33.856;151.182;2023-04-24T03:11:50;10.60;;;1.52;;
20802;SDS011;10562;-33.856;151.182;2023-04-24T03:14:24;11.10;;;1.80;;
20802;SDS011;10562;-33.856;151.182;2023-04-24T03:16:57;10.52;;;1.80;;
20802;SDS011;10562;-33.856;151.182;2023-04-24T03:19:28;9.50;;;1.73;;
20802;SDS011;10562;-33.856;151.182;2023-04-24T03:21:58;8.68;;;2.00;;
20802;SDS011;10562;-33.856;151.182;2023-04-24T03:24:33;14.40;;;2.63;;
20802;SDS011;10562;-33.856;151.182;2023-04-24T03:27:03;14.55;;;2.15;;
20802;SDS011;10562;-33.856;151.182;2023-04-24T03:29:34;11.43;;;1.88;;
20802;SDS011;10562;-33.856;151.182;2023-04-24T03:32:05;13.75;;;2.20;;
20802;SDS011;10562;-33.856;151.182;2023-04-24T03:34:36;12.23;;;2.15;;
20802;SDS011;10562;-33.856;151.182;2023-04-24T03:37:06;9.82;;;2.10;;
20802;SDS011;10562;-33.856;151.182;2023-04-24T03:39:39;12.95;;;2.15;;
20802;SDS011;10562;-33.856;151.182;2023-04-24T03:42:10;12.07;;;2.50;;
20802;SDS011;10562;-33.856;151.182;2023-04-24T03:44:41;9.18;;;1.90;;
20802;SDS011;10562;-33.856;151.182;2023-04-24T03:47:12;9.95;;;1.70;;
20802;SDS011;10562;-33.856;151.182;2023-04-24T03:49:43;11.70;;;2.10;;
20802;SDS011;10562;-33.856;151.182;2023-04-24T03:52:14;13.85;;;2.15;;
20802;SDS011;10562;-33.856;151.182;2023-04-24T03:54:46;15.57;;;2.15;;
20802;SDS011;10562;-33.856;151.182;2023-04-24T03:57:17;13.82;;;2.08;;
20802;SDS011;10562;-33.856;151.182;2023-04-24T03:59:48;10.13;;;1.95;;
20802;SDS011;10562;-33.856;151.182;2023-04-24T04:02:19;14.23;;;2.25;;
20802;SDS011;10562;-33.856;151.182;2023-04-24T04:04:50;11.88;;;2.08;;
20802;SDS011;10562;-33.856;151.182;2023-04-24T04:07:21;17.77;;;2.45;;
20802;SDS011;10562;-33.856;151.182;2023-04-24T04:09:53;14.02;;;1.90;;
20802;SDS011;10562;-33.856;151.182;2023-04-24T04:12:24;12.23;;;1.80;;
20802;SDS011;10562;-33.856;151.182;2023-04-24T04:14:55;12.50;;;2.20;;
20802;SDS011;10562;-33.856;151.182;2023-04-24T04:17:26;12.60;;;2.10;;
20802;SDS011;10562;-33.856;151.182;2023-04-24T04:19:57;11.35;;;2.47;;
20802;SDS011;10562;-33.856;151.182;2023-04-24T04:22:27;11.85;;;1.98;;
20802;SDS011;10562;-33.856;151.182;2023-04-24T04:25:00;10.68;;;2.45;;
20802;SDS011;10562;-33.856;151.182;2023-04-24T04:27:31;12.77;;;2.17;;
20802;SDS011;10562;-33.856;151.182;2023-04-24T04:30:02;10.10;;;1.95;;
20802;SDS011;10562;-33.856;151.182;2023-04-24T04:32:33;8.85;;;1.85;;
20802;SDS011;10562;-33.856;151.182;2023-04-24T04:35:04;9.75;;;2.00;;
20802;SDS011;10562;-33.856;151.182;2023-04-24T04:37:35;12.45;;;2.00;;
20802;SDS011;10562;-33.856;151.182;2023-04-24T04:40:09;10.43;;;1.77;;
20802;SDS011;10562;-33.856;151.182;2023-04-24T04:42:40;13.98;;;2.40;;
20802;SDS011;10562;-33.856;151.182;2023-04-24T04:45:12;15.27;;;2.55;;
20802;SDS011;10562;-33.856;151.182;2023-04-24T04:47:43;14.05;;;2.80;;
20802;SDS011;10562;-33.856;151.182;2023-04-24T04:50:13;14.20;;;2.30;;
20802;SDS011;10562;-33.856;151.182;2023-04-24T04:52:45;15.45;;;2.40;;
20802;SDS011;10562;-33.856;151.182;2023-04-24T04:55:18;15.43;;;2.25;;
20802;SDS011;10562;-33.856;151.182;2023-04-24T04:57:49;11.88;;;2.53;;
20802;SDS011;10562;-33.856;151.182;2023-04-24T05:00:22;16.00;;;2.42;;
20802;SDS011;10562;-33.856;151.182;2023-04-24T05:02:53;18.05;;;2.65;;
20802;SDS011;10562;-33.856;151.182;2023-04-24T05:05:24;14.02;;;2.17;;
20802;SDS011;10562;-33.856;151.182;2023-04-24T05:07:54;17.48;;;2.53;;
20802;SDS011;10562;-33.856;151.182;2023-04-24T05:10:27;15.10;;;2.63;;
20802;SDS011;10562;-33.856;151.182;2023-04-24T05:12:58;16.40;;;2.47;;
20802;SDS011;10562;-33.856;151.182;2023-04-24T05:15:29;17.15;;;2.75;;
20802;SDS011;10562;-33.856;151.182;2023-04-24T05:18:00;24.95;;;3.20;;
20802;SDS011;10562;-33.856;151.182;2023-04-24T05:20:30;14.02;;;2.70;;
20802;SDS011;10562;-33.856;151.182;2023-04-24T05:23:01;17.55;;;2.63;;
20802;SDS011;10562;-33.856;151.182;2023-04-24T05:25:34;21.13;;;2.90;;
20802;SDS011;10562;-33.856;151.182;2023-04-24T05:28:06;23.63;;;3.10;;
20802;SDS011;10562;-33.856;151.182;2023-04-24T05:30:37;17.30;;;2.85;;
20802;SDS011;10562;-33.856;151.182;2023-04-24T05:33:07;24.98;;;3.47;;
20802;SDS011;10562;-33.856;151.182;2023-04-24T05:35:38;22.23;;;3.50;;
20802;SDS011;10562;-33.856;151.182;2023-04-24T05:38:12;25.27;;;3.65;;
20802;SDS011;10562;-33.856;151.182;2023-04-24T05:40:45;21.23;;;3.30;;
20802;SDS011;10562;-33.856;151.182;2023-04-24T05:43:16;16.90;;;2.90;;
20802;SDS011;10562;-33.856;151.182;2023-04-24T05:45:47;12.25;;;2.35;;
20802;SDS011;10562;-33.856;151.182;2023-04-24T05:48:19;23.48;;;2.95;;
20802;SDS011;10562;-33.856;151.182;2023-04-24T05:50:50;17.95;;;2.67;;
20802;SDS011;10562;-33.856;151.182;2023-04-24T05:53:21;22.23;;;3.20;;
20802;SDS011;10562;-33.856;151.182;2023-04-24T05:55:54;17.83;;;2.97;;
20802;SDS011;10562;-33.856;151.182;2023-04-24T05:58:25;20.70;;;3.03;;
20802;SDS011;10562;-33.856;151.182;2023-04-24T06:00:56;21.70;;;3.33;;
20802;SDS011;10562;-33.856;151.182;2023-04-24T06:03:27;22.10;;;2.95;;
20802;SDS011;10562;-33.856;151.182;2023-04-24T06:05:59;24.17;;;3.05;;
20802;SDS011;10562;-33.856;151.182;2023-04-24T06:08:29;16.00;;;3.10;;
20802;SDS011;10562;-33.856;151.182;2023-04-24T06:11:02;19.20;;;3.50;;
20802;SDS011;10562;-33.856;151.182;2023-04-24T06:13:33;21.52;;;3.25;;
20802;SDS011;10562;-33.856;151.182;2023-04-24T06:16:04;18.02;;;4.00;;
20802;SDS011;10562;-33.856;151.182;2023-04-24T06:18:35;19.50;;;4.10;;
20802;SDS011;10562;-33.856;151.182;2023-04-24T06:21:06;15.88;;;4.10;;
20802;SDS011;10562;-33.856;151.182;2023-04-24T06:23:37;23.05;;;4.38;;
20802;SDS011;10562;-33.856;151.182;2023-04-24T06:26:10;18.23;;;4.03;;
20802;SDS011;10562;-33.856;151.182;2023-04-24T06:28:41;25.35;;;5.10;;
20802;SDS011;10562;-33.856;151.182;2023-04-24T06:31:11;21.40;;;4.57;;
20802;SDS011;10562;-33.856;151.182;2023-04-24T06:33:42;18.50;;;4.40;;
20802;SDS011;10562;-33.856;151.182;2023-04-24T06:36:13;20.88;;;5.05;;
20802;SDS011;10562;-33.856;151.182;2023-04-24T06:38:44;18.35;;;5.00;;
20802;SDS011;10562;-33.856;151.182;2023-04-24T06:41:17;20.50;;;4.70;;
20802;SDS011;10562;-33.856;151.182;2023-04-24T06:43:47;20.85;;;4.38;;
20802;SDS011;10562;-33.856;151.182;2023-04-24T06:46:18;19.75;;;5.15;;
20802;SDS011;10562;-33.856;151.182;2023-04-24T06:48:50;18.08;;;4.30;;
20802;SDS011;10562;-33.856;151.182;2023-04-24T06:51:22;15.27;;;4.35;;
20802;SDS011;10562;-33.856;151.182;2023-04-24T06:53:54;18.55;;;4.13;;
20802;SDS011;10562;-33.856;151.182;2023-04-24T06:56:26;18.27;;;4.15;;
20802;SDS011;10562;-33.856;151.182;2023-04-24T06:58:57;14.85;;;4.38;;
20802;SDS011;10562;-33.856;151.182;2023-04-24T07:01:28;15.73;;;4.32;;
20802;SDS011;10562;-33.856;151.182;2023-04-24T07:03:59;13.55;;;4.28;;
20802;SDS011;10562;-33.856;151.182;2023-04-24T07:06:29;20.17;;;4.65;;
20802;SDS011;10562;-33.856;151.182;2023-04-24T07:09:02;18.05;;;4.20;;
20802;SDS011;10562;-33.856;151.182;2023-04-24T07:11:34;15.68;;;4.47;;
20802;SDS011;10562;-33.856;151.182;2023-04-24T07:14:06;13.95;;;4.35;;
20802;SDS011;10562;-33.856;151.182;2023-04-24T07:16:37;12.15;;;4.72;;
20802;SDS011;10562;-33.856;151.182;2023-04-24T07:19:08;10.55;;;4.10;;
20802;SDS011;10562;-33.856;151.182;2023-04-24T07:21:39;13.50;;;4.10;;
20802;SDS011;10562;-33.856;151.182;2023-04-24T07:24:10;12.07;;;5.97;;
20802;SDS011;10562;-33.856;151.182;2023-04-24T07:26:43;17.35;;;7.15;;
20802;SDS011;10562;-33.856;151.182;2023-04-24T07:29:14;14.82;;;8.25;;
20802;SDS011;10562;-33.856;151.182;2023-04-24T07:31:45;14.25;;;6.60;;
20802;SDS011;10562;-33.856;151.182;2023-04-24T07:34:16;12.55;;;6.97;;
20802;SDS011;10562;-33.856;151.182;2023-04-24T07:36:46;17.73;;;8.32;;
20802;SDS011;10562;-33.856;151.182;2023-04-24T07:39:17;17.15;;;8.68;;
20802;SDS011;10562;-33.856;151.182;2023-04-24T07:41:50;13.45;;;8.30;;
20802;SDS011;10562;-33.856;151.182;2023-04-24T07:44:21;13.63;;;8.18;;
20802;SDS011;10562;-33.856;151.182;2023-04-24T07:46:52;13.02;;;8.60;;
20802;SDS011;10562;-33.856;151.182;2023-04-24T07:49:23;14.73;;;9.77;;
20802;SDS011;10562;-33.856;151.182;2023-04-24T07:51:54;12.57;;;8.90;;
20802;SDS011;10562;-33.856;151.182;2023-04-24T07:54:26;14.90;;;9.63;;
20802;SDS011;10562;-33.856;151.182;2023-04-24T07:56:59;12.20;;;9.13;;
20802;SDS011;10562;-33.856;151.182;2023-04-24T07:59:30;17.23;;;10.18;;
20802;SDS011;10562;-33.856;151.182;2023-04-24T08:02:01;17.42;;;11.18;;
20802;SDS011;10562;-33.856;151.182;2023-04-24T08:04:32;13.18;;;9.80;;
20802;SDS011;10562;-33.856;151.182;2023-04-24T08:07:03;14.77;;;8.65;;
20802;SDS011;10562;-33.856;151.182;2023-04-24T08:09:34;11.23;;;6.93;;
20802;SDS011;10562;-33.856;151.182;2023-04-24T08:12:06;10.57;;;6.55;;
20802;SDS011;10562;-33.856;151.182;2023-04-24T08:14:37;13.50;;;6.25;;
20802;SDS011;10562;-33.856;151.182;2023-04-24T08:17:08;16.58;;;7.53;;
20802;SDS011;10562;-33.856;151.182;2023-04-24T08:19:39;15.07;;;6.65;;
20802;SDS011;10562;-33.856;151.182;2023-04-24T08:22:14;14.50;;;6.43;;
20802;SDS011;10562;-33.856;151.182;2023-04-24T08:24:45;14.10;;;6.85;;
20802;SDS011;10562;-33.856;151.182;2023-04-24T08:27:18;14.90;;;7.07;;
20802;SDS011;10562;-33.856;151.182;2023-04-24T08:29:48;16.88;;;7.75;;
20802;SDS011;10562;-33.856;151.182;2023-04-24T08:32:19;16.15;;;6.95;;
20802;SDS011;10562;-33.856;151.182;2023-04-24T08:34:50;13.10;;;7.38;;
20802;SDS011;10562;-33.856;151.182;2023-04-24T08:37:22;16.48;;;7.65;;
20802;SDS011;10562;-33.856;151.182;2023-04-24T08:39:55;15.60;;;8.45;;
20802;SDS011;10562;-33.856;151.182;2023-04-24T08:42:28;20.63;;;8.25;;
20802;SDS011;10562;-33.856;151.182;2023-04-24T08:45:00;21.27;;;9.43;;
20802;SDS011;10562;-33.856;151.182;2023-04-24T08:47:31;20.02;;;11.85;;
20802;SDS011;10562;-33.856;151.182;2023-04-24T08:50:04;22.40;;;12.60;;
20802;SDS011;10562;-33.856;151.182;2023-04-24T08:52:36;29.05;;;17.90;;
20802;SDS011;10562;-33.856;151.182;2023-04-24T08:55:06;31.38;;;24.35;;
20802;SDS011;10562;-33.856;151.182;2023-04-24T08:57:39;41.50;;;35.03;;
20802;SDS011;10562;-33.856;151.182;2023-04-24T09:00:11;42.53;;;38.40;;
20802;SDS011;10562;-33.856;151.182;2023-04-24T09:02:43;48.42;;;43.75;;
20802;SDS011;10562;-33.856;151.182;2023-04-24T09:05:14;53.38;;;47.85;;
20802;SDS011;10562;-33.856;151.182;2023-04-24T09:07:48;87.97;;;80.05;;
20802;SDS011;10562;-33.856;151.182;2023-04-24T09:10:22;96.43;;;88.50;;
20802;SDS011;10562;-33.856;151.182;2023-04-24T09:12:58;95.95;;;87.47;;
20802;SDS011;10562;-33.856;151.182;2023-04-24T09:15:30;95.35;;;87.50;;
20802;SDS011;10562;-33.856;151.182;2023-04-24T09:18:01;97.15;;;88.63;;
20802;SDS011;10562;-33.856;151.182;2023-04-24T09:20:32;99.70;;;90.97;;
20802;SDS011;10562;-33.856;151.182;2023-04-24T09:23:04;106.07;;;97.13;;
20802;SDS011;10562;-33.856;151.182;2023-04-24T09:25:36;107.75;;;99.15;;
20802;SDS011;10562;-33.856;151.182;2023-04-24T09:28:09;108.38;;;99.18;;
20802;SDS011;10562;-33.856;151.182;2023-04-24T09:30:40;111.13;;;102.43;;
20802;SDS011;10562;-33.856;151.182;2023-04-24T09:33:12;123.28;;;113.50;;
20802;SDS011;10562;-33.856;151.182;2023-04-24T09:35:49;131.98;;;121.32;;
20802;SDS011;10562;-33.856;151.182;2023-04-24T09:38:20;138.80;;;127.53;;
20802;SDS011;10562;-33.856;151.182;2023-04-24T09:41:01;134.63;;;123.85;;
20802;SDS011;10562;-33.856;151.182;2023-04-24T09:43:36;140.07;;;128.93;;
20802;SDS011;10562;-33.856;151.182;2023-04-24T09:46:07;135.82;;;125.18;;
20802;SDS011;10562;-33.856;151.182;2023-04-24T09:48:38;136.82;;;126.25;;
20802;SDS011;10562;-33.856;151.182;2023-04-24T09:51:09;140.27;;;128.70;;
20802;SDS011;10562;-33.856;151.182;2023-04-24T09:53:45;137.10;;;126.10;;
20802;SDS011;10562;-33.856;151.182;2023-04-24T09:56:18;142.10;;;130.75;;
20802;SDS011;10562;-33.856;151.182;2023-04-24T09:58:51;143.30;;;132.38;;
20802;SDS011;10562;-33.856;151.182;2023-04-24T10:01:29;152.52;;;140.43;;
20802;SDS011;10562;-33.856;151.182;2023-04-24T10:04:00;150.23;;;137.80;;
20802;SDS011;10562;-33.856;151.182;2023-04-24T10:06:33;156.52;;;144.18;;
20802;SDS011;10562;-33.856;151.182;2023-04-24T10:09:05;145.73;;;134.23;;
20802;SDS011;10562;-33.856;151.182;2023-04-24T10:11:38;148.02;;;136.45;;
20802;SDS011;10562;-33.856;151.182;2023-04-24T10:14:18;145.75;;;134.52;;
20802;SDS011;10562;-33.856;151.182;2023-04-24T10:16:54;142.45;;;131.32;;
20802;SDS011;10562;-33.856;151.182;2023-04-24T10:19:25;138.02;;;127.70;;
20802;SDS011;10562;-33.856;151.182;2023-04-24T10:21:58;138.95;;;128.40;;
20802;SDS011;10562;-33.856;151.182;2023-04-24T10:24:29;130.77;;;120.53;;
20802;SDS011;10562;-33.856;151.182;2023-04-24T10:27:03;131.40;;;121.78;;
20802;SDS011;10562;-33.856;151.182;2023-04-24T10:29:37;131.40;;;121.90;;
20802;SDS011;10562;-33.856;151.182;2023-04-24T10:32:10;135.52;;;124.68;;
20802;SDS011;10562;-33.856;151.182;2023-04-24T10:34:41;133.93;;;124.03;;
20802;SDS011;10562;-33.856;151.182;2023-04-24T10:37:12;140.70;;;130.32;;
20802;SDS011;10562;-33.856;151.182;2023-04-24T10:39:43;138.10;;;127.65;;
20802;SDS011;10562;-33.856;151.182;2023-04-24T10:42:20;137.55;;;127.18;;
20802;SDS011;10562;-33.856;151.182;2023-04-24T10:44:53;142.73;;;131.88;;
20802;SDS011;10562;-33.856;151.182;2023-04-24T10:47:24;147.32;;;136.05;;
20802;SDS011;10562;-33.856;151.182;2023-04-24T10:49:55;149.82;;;138.75;;
20802;SDS011;10562;-33.856;151.182;2023-04-24T10:52:43;150.30;;;138.48;;
20802;SDS011;10562;-33.856;151.182;2023-04-24T10:55:16;147.85;;;136.18;;
20802;SDS011;10562;-33.856;151.182;2023-04-24T10:58:14;150.27;;;139.27;;
20802;SDS011;10562;-33.856;151.182;2023-04-24T11:00:55;154.13;;;142.40;;
20802;SDS011;10562;-33.856;151.182;2023-04-24T11:03:27;159.15;;;146.85;;
20802;SDS011;10562;-33.856;151.182;2023-04-24T11:05:59;152.27;;;140.40;;
20802;SDS011;10562;-33.856;151.182;2023-04-24T11:08:32;157.30;;;145.63;;
20802;SDS011;10562;-33.856;151.182;2023-04-24T11:11:10;158.05;;;145.85;;
20802;SDS011;10562;-33.856;151.182;2023-04-24T11:16:42;160.45;;;148.10;;
20802;SDS011;10562;-33.856;151.182;2023-04-24T11:19:21;158.10;;;145.57;;
20802;SDS011;10562;-33.856;151.182;2023-04-24T11:21:57;160.30;;;147.80;;
20802;SDS011;10562;-33.856;151.182;2023-04-24T11:24:32;157.20;;;145.20;;
20802;SDS011;10562;-33.856;151.182;2023-04-24T11:27:11;167.77;;;154.93;;
20802;SDS011;10562;-33.856;151.182;2023-04-24T11:29:43;168.35;;;155.63;;
20802;SDS011;10562;-33.856;151.182;2023-04-24T11:32:17;173.70;;;160.48;;
20802;SDS011;10562;-33.856;151.182;2023-04-24T11:34:53;178.48;;;164.68;;
20802;SDS011;10562;-33.856;151.182;2023-04-24T11:37:25;185.38;;;171.90;;
20802;SDS011;10562;-33.856;151.182;2023-04-24T11:39:57;181.93;;;168.07;;
20802;SDS011;10562;-33.856;151.182;2023-04-24T11:42:28;189.52;;;175.50;;
20802;SDS011;10562;-33.856;151.182;2023-04-24T11:45:07;184.93;;;170.98;;
20802;SDS011;10562;-33.856;151.182;2023-04-24T11:47:41;188.35;;;174.15;;
20802;SDS011;10562;-33.856;151.182;2023-04-24T11:50:13;199.00;;;184.50;;
20802;SDS011;10562;-33.856;151.182;2023-04-24T11:52:45;203.30;;;187.75;;
20802;SDS011;10562;-33.856;151.182;2023-04-24T11:55:26;210.77;;;195.60;;
20802;SDS011;10562;-33.856;151.182;2023-04-24T11:57:58;217.02;;;200.85;;
20802;SDS011;10562;-33.856;151.182;2023-04-24T12:00:29;220.07;;;203.75;;
20802;SDS011;10562;-33.856;151.182;2023-04-24T12:03:07;225.35;;;208.18;;
20802;SDS011;10562;-33.856;151.182;2023-04-24T12:05:38;164.02;;;152.20;;
20802;SDS011;10562;-33.856;151.182;2023-04-24T12:08:10;164.13;;;152.10;;
20802;SDS011;10562;-33.856;151.182;2023-04-24T12:10:55;162.55;;;150.35;;
20802;SDS011;10562;-33.856;151.182;2023-04-24T12:13:26;215.10;;;199.70;;
20802;SDS011;10562;-33.856;151.182;2023-04-24T12:15:57;226.13;;;209.80;;
20802;SDS011;10562;-33.856;151.182;2023-04-24T12:18:29;232.98;;;216.13;;
20802;SDS011;10562;-33.856;151.182;2023-04-24T12:21:16;248.98;;;231.25;;
20802;SDS011;10562;-33.856;151.182;2023-04-24T12:23:48;249.48;;;231.60;;
20802;SDS011;10562;-33.856;151.182;2023-04-24T12:26:20;254.38;;;235.93;;
20802;SDS011;10562;-33.856;151.182;2023-04-24T12:28:51;256.83;;;238.50;;
20802;SDS011;10562;-33.856;151.182;2023-04-24T12:31:22;260.95;;;241.95;;
20802;SDS011;10562;-33.856;151.182;2023-04-24T12:33:57;276.85;;;257.00;;
20802;SDS011;10562;-33.856;151.182;2023-04-24T12:36:28;267.33;;;246.48;;
20802;SDS011;10562;-33.856;151.182;2023-04-24T12:38:59;285.52;;;265.27;;
20802;SDS011;10562;-33.856;151.182;2023-04-24T12:41:30;290.08;;;269.58;;
20802;SDS011;10562;-33.856;151.182;2023-04-24T12:44:01;302.08;;;280.58;;
20802;SDS011;10562;-33.856;151.182;2023-04-24T12:46:32;310.02;;;287.95;;
20802;SDS011;10562;-33.856;151.182;2023-04-24T12:49:04;309.60;;;287.88;;
20802;SDS011;10562;-33.856;151.182;2023-04-24T12:51:35;309.73;;;287.15;;
20802;SDS011;10562;-33.856;151.182;2023-04-24T12:54:06;317.17;;;294.83;;
20802;SDS011;10562;-33.856;151.182;2023-04-24T12:56:38;314.48;;;291.33;;
20802;SDS011;10562;-33.856;151.182;2023-04-24T12:59:08;328.08;;;304.52;;
20802;SDS011;10562;-33.856;151.182;2023-04-24T13:01:39;328.08;;;304.63;;
20802;SDS011;10562;-33.856;151.182;2023-04-24T13:04:12;341.23;;;316.02;;
20802;SDS011;10562;-33.856;151.182;2023-04-24T13:06:43;340.15;;;315.83;;
20802;SDS011;10562;-33.856;151.182;2023-04-24T13:09:14;336.40;;;311.90;;
20802;SDS011;10562;-33.856;151.182;2023-04-24T13:11:45;341.48;;;314.95;;
20802;SDS011;10562;-33.856;151.182;2023-04-24T13:14:16;353.77;;;328.15;;
20802;SDS011;10562;-33.856;151.182;2023-04-24T13:16:46;340.70;;;316.20;;
20802;SDS011;10562;-33.856;151.182;2023-04-24T13:19:20;352.30;;;327.00;;
20802;SDS011;10562;-33.856;151.182;2023-04-24T13:21:50;343.20;;;319.10;;
20802;SDS011;10562;-33.856;151.182;2023-04-24T13:24:21;342.25;;;316.67;;
20802;SDS011;10562;-33.856;151.182;2023-04-24T13:26:52;342.10;;;315.92;;
20802;SDS011;10562;-33.856;151.182;2023-04-24T13:29:24;345.23;;;320.83;;
20802;SDS011;10562;-33.856;151.182;2023-04-24T13:31:55;321.83;;;298.77;;
20802;SDS011;10562;-33.856;151.182;2023-04-24T13:34:28;335.55;;;311.33;;
20802;SDS011;10562;-33.856;151.182;2023-04-24T13:36:59;343.48;;;318.95;;
20802;SDS011;10562;-33.856;151.182;2023-04-24T13:39:29;344.33;;;319.67;;
20802;SDS011;10562;-33.856;151.182;2023-04-24T13:42:01;350.38;;;325.92;;
20802;SDS011;10562;-33.856;151.182;2023-04-24T13:44:32;347.27;;;323.40;;
20802;SDS011;10562;-33.856;151.182;2023-04-24T13:47:02;358.65;;;333.40;;
20802;SDS011;10562;-33.856;151.182;2023-04-24T13:49:35;343.63;;;319.13;;
20802;SDS011;10562;-33.856;151.182;2023-04-24T13:52:06;349.48;;;323.85;;
20802;SDS011;10562;-33.856;151.182;2023-04-24T13:54:36;355.60;;;330.55;;
20802;SDS011;10562;-33.856;151.182;2023-04-24T13:57:07;354.25;;;328.52;;
20802;SDS011;10562;-33.856;151.182;2023-04-24T13:59:38;360.58;;;334.13;;
20802;SDS011;10562;-33.856;151.182;2023-04-24T14:02:09;357.17;;;331.85;;
20802;SDS011;10562;-33.856;151.182;2023-04-24T14:04:41;359.55;;;333.60;;
20802;SDS011;10562;-33.856;151.182;2023-04-24T14:07:14;361.15;;;335.23;;
20802;SDS011;10562;-33.856;151.182;2023-04-24T14:09:45;363.80;;;335.63;;
20802;SDS011;10562;-33.856;151.182;2023-04-24T14:12:16;366.33;;;339.88;;
20802;SDS011;10562;-33.856;151.182;2023-04-24T14:14:48;368.27;;;341.63;;
20802;SDS011;10562;-33.856;151.182;2023-04-24T14:17:18;366.17;;;340.13;;